createdAt,value
2018-12-11T00:00:14.072Z,99.90
2018-12-11T00:02:48.879Z,99.90
2018-12-11T00:05:23.925Z,99.90
2018-12-11T00:07:58.649Z,99.90
2018-12-11T00:10:33.383Z,99.90
2018-12-11T00:13:08.303Z,99.90
2018-12-11T00:15:43.143Z,99.90
2018-12-11T00:18:18.306Z,99.90
2018-12-11T00:20:53.119Z,99.90
2018-12-11T00:23:27.895Z,99.90
2018-12-11T00:26:02.576Z,99.90
2018-12-11T00:28:37.463Z,99.90
2018-12-11T00:31:12.567Z,99.90
2018-12-11T00:33:47.303Z,99.90
2018-12-11T00:36:22.233Z,99.90
2018-12-11T00:38:56.963Z,99.90
2018-12-11T00:41:31.829Z,99.90
2018-12-11T00:44:06.726Z,99.90
2018-12-11T00:46:41.668Z,99.90
2018-12-11T00:49:16.292Z,99.90
2018-12-11T00:51:51.182Z,99.90
2018-12-11T00:54:25.972Z,99.90
2018-12-11T00:57:00.600Z,99.90
2018-12-11T00:59:35.251Z,99.90
2018-12-11T01:02:10.101Z,99.90
2018-12-11T01:04:44.819Z,99.90
2018-12-11T01:07:20.496Z,99.90
2018-12-11T01:09:55.091Z,99.90
2018-12-11T01:12:29.986Z,99.90
2018-12-11T01:15:06.392Z,99.90
2018-12-11T01:17:41.249Z,99.90
2018-12-11T01:20:16.156Z,99.90
2018-12-11T01:22:51.052Z,99.90
2018-12-11T01:25:25.829Z,99.90
2018-12-11T01:28:00.639Z,99.90
2018-12-11T01:30:35.503Z,99.90
2018-12-11T01:33:10.265Z,99.90
2018-12-11T01:35:45.074Z,99.90
2018-12-11T01:38:19.985Z,99.90
2018-12-11T01:40:54.568Z,99.90
2018-12-11T01:43:29.377Z,99.90
2018-12-11T01:46:04.215Z,99.90
2018-12-11T01:48:39.015Z,99.90
2018-12-11T01:51:13.780Z,99.90
2018-12-11T01:53:48.740Z,99.90
2018-12-11T01:56:24.099Z,99.90
2018-12-11T01:58:59.008Z,99.90
2018-12-11T02:01:33.840Z,99.90
2018-12-11T02:04:08.696Z,99.90
2018-12-11T02:06:46.534Z,99.90
2018-12-11T02:09:21.246Z,99.90
2018-12-11T02:11:55.964Z,99.90
2018-12-11T02:14:30.705Z,99.90
2018-12-11T02:17:05.652Z,99.90
2018-12-11T02:19:40.592Z,99.90
2018-12-11T02:22:15.245Z,99.90
2018-12-11T02:24:50.347Z,99.90
2018-12-11T02:27:25.647Z,99.90
2018-12-11T02:30:00.275Z,99.90
2018-12-11T02:32:35.185Z,99.90
2018-12-11T02:35:10.013Z,99.90
2018-12-11T02:37:44.924Z,99.90
2018-12-11T02:40:19.657Z,99.90
2018-12-11T02:42:54.374Z,99.90
2018-12-11T02:45:29.682Z,99.90
2018-12-11T02:48:04.473Z,99.90
2018-12-11T02:50:39.339Z,99.90
2018-12-11T02:53:14.136Z,99.90
2018-12-11T02:55:48.890Z,99.90
2018-12-11T02:58:23.726Z,99.90
2018-12-11T03:00:58.486Z,99.90
2018-12-11T03:03:33.355Z,99.90
2018-12-11T03:06:08.235Z,99.90
2018-12-11T03:08:43.071Z,99.90
2018-12-11T03:11:17.982Z,99.90
2018-12-11T03:13:52.701Z,99.90
2018-12-11T03:16:27.486Z,99.90
2018-12-11T03:19:02.236Z,99.90
2018-12-11T03:21:37.144Z,99.90
2018-12-11T03:24:12.038Z,99.90
2018-12-11T03:26:46.847Z,99.90
2018-12-11T03:29:21.671Z,99.90
2018-12-11T03:31:56.497Z,99.90
2018-12-11T03:34:31.980Z,99.90
2018-12-11T03:37:06.675Z,99.90
2018-12-11T03:39:41.526Z,99.90
2018-12-11T03:42:16.369Z,99.90
2018-12-11T03:44:51.119Z,99.90
2018-12-11T03:47:26.071Z,99.90
2018-12-11T03:50:00.959Z,99.90
2018-12-11T03:52:35.805Z,99.90
2018-12-11T03:55:17.148Z,99.90
2018-12-11T03:57:51.826Z,99.90
2018-12-11T04:00:26.637Z,99.90
2018-12-11T04:03:01.558Z,99.90
2018-12-11T04:05:36.280Z,99.90
2018-12-11T04:08:11.187Z,99.90
2018-12-11T04:10:46.172Z,99.90
2018-12-11T04:13:20.899Z,99.90
2018-12-11T04:15:55.560Z,99.90
2018-12-11T04:18:30.281Z,99.90
2018-12-11T04:21:05.094Z,99.90
2018-12-11T04:23:39.845Z,99.90
2018-12-11T04:26:14.678Z,99.90
2018-12-11T04:28:49.266Z,99.90
2018-12-11T04:31:24.093Z,99.90
2018-12-11T04:33:59.000Z,99.90
2018-12-11T04:36:34.297Z,99.90
2018-12-11T04:39:09.095Z,99.90
2018-12-11T04:41:43.906Z,99.90
2018-12-11T04:44:18.870Z,99.90
2018-12-11T04:46:53.656Z,99.90
2018-12-11T04:49:28.541Z,99.90
2018-12-11T04:52:03.339Z,99.90
2018-12-11T04:54:38.109Z,99.90
2018-12-11T04:57:12.895Z,99.90
2018-12-11T04:59:47.766Z,99.90
2018-12-11T05:02:22.556Z,99.90
2018-12-11T05:04:57.356Z,99.90
2018-12-11T05:07:32.166Z,99.90
2018-12-11T05:10:08.014Z,99.90
2018-12-11T05:12:42.687Z,99.90
2018-12-11T05:15:17.319Z,99.90
2018-12-11T05:17:52.071Z,99.90
2018-12-11T05:20:26.883Z,99.90
2018-12-11T05:23:01.641Z,99.90
2018-12-11T05:25:37.049Z,99.90
2018-12-11T05:28:11.729Z,99.90
2018-12-11T05:30:46.465Z,99.90
2018-12-11T05:33:21.158Z,99.90
2018-12-11T05:35:55.854Z,99.90
2018-12-11T05:38:30.528Z,99.90
2018-12-11T05:41:05.370Z,99.90
2018-12-11T05:43:40.800Z,99.90
2018-12-11T05:46:15.560Z,99.90
2018-12-11T05:48:50.431Z,99.90
2018-12-11T05:51:25.418Z,99.90
2018-12-11T05:54:00.049Z,99.90
2018-12-11T05:56:34.874Z,99.90
2018-12-11T05:59:09.615Z,99.90
2018-12-11T06:01:44.346Z,99.90
2018-12-11T06:04:18.982Z,99.90
2018-12-11T06:06:53.714Z,99.90
2018-12-11T06:09:28.618Z,99.90
2018-12-11T06:12:03.399Z,99.90
2018-12-11T06:14:38.218Z,99.90
2018-12-11T06:17:13.382Z,99.90
2018-12-11T06:19:48.045Z,99.90
2018-12-11T06:22:22.935Z,99.90
2018-12-11T06:24:57.640Z,99.90
2018-12-11T06:27:32.475Z,99.90
2018-12-11T06:30:09.376Z,99.90
2018-12-11T06:32:44.586Z,99.90
2018-12-11T06:35:19.460Z,99.90
2018-12-11T06:37:54.394Z,99.90
2018-12-11T06:40:29.251Z,99.90
2018-12-11T06:43:04.023Z,99.90
2018-12-11T06:45:38.679Z,99.90
2018-12-11T06:48:13.374Z,99.90
2018-12-11T06:50:48.188Z,99.90
2018-12-11T06:53:23.047Z,99.90
2018-12-11T06:55:57.804Z,99.90
2018-12-11T06:58:32.908Z,99.90
2018-12-11T07:01:07.626Z,99.90
2018-12-11T07:03:42.663Z,99.90
2018-12-11T07:06:17.477Z,99.90
2018-12-11T07:08:52.443Z,99.90
2018-12-11T07:11:27.200Z,99.90
2018-12-11T07:14:02.126Z,99.90
2018-12-11T07:16:36.928Z,99.90
2018-12-11T07:19:11.814Z,99.90
2018-12-11T07:21:47.341Z,99.90
2018-12-11T07:24:22.037Z,99.90
2018-12-11T07:26:56.667Z,99.90
2018-12-11T07:29:31.599Z,99.90
2018-12-11T07:32:06.621Z,99.90
2018-12-11T07:34:41.354Z,99.90
2018-12-11T07:37:16.196Z,99.90
2018-12-11T07:39:50.880Z,99.90
2018-12-11T07:42:25.719Z,99.90
2018-12-11T07:45:00.559Z,99.90
2018-12-11T07:47:35.660Z,99.90
2018-12-11T07:50:10.327Z,99.90
2018-12-11T07:52:45.029Z,99.90
2018-12-11T07:55:19.693Z,99.90
2018-12-11T07:57:54.521Z,99.90
2018-12-11T08:00:29.412Z,99.90
2018-12-11T08:03:04.344Z,99.90
2018-12-11T08:05:39.892Z,99.90
2018-12-11T08:08:17.378Z,99.90
2018-12-11T08:10:52.216Z,99.90
2018-12-11T08:13:26.874Z,99.90
2018-12-11T08:16:01.821Z,99.90
2018-12-11T08:18:36.814Z,99.90
2018-12-11T08:21:11.483Z,99.90
2018-12-11T08:23:46.109Z,99.90
2018-12-11T08:26:21.025Z,99.90
2018-12-11T08:28:55.727Z,99.90
2018-12-11T08:31:37.236Z,99.90
2018-12-11T08:34:12.034Z,99.90
2018-12-11T08:36:46.892Z,99.90
2018-12-11T08:39:21.694Z,99.90
2018-12-11T08:41:56.585Z,99.90
2018-12-11T08:44:31.370Z,99.90
2018-12-11T08:47:06.216Z,99.90
2018-12-11T08:49:41.042Z,99.90
2018-12-11T08:52:15.805Z,99.90
2018-12-11T08:54:50.865Z,99.90
2018-12-11T08:57:26.087Z,99.90
2018-12-11T09:00:01.062Z,99.90
2018-12-11T09:02:35.829Z,99.90
2018-12-11T09:05:11.507Z,99.90
2018-12-11T09:07:46.248Z,99.90
2018-12-11T09:10:21.138Z,99.90
2018-12-11T09:12:56.033Z,99.90
2018-12-11T09:15:30.620Z,99.90
2018-12-11T09:18:11.891Z,99.90
2018-12-11T09:20:46.587Z,99.90
2018-12-11T09:23:21.417Z,99.90
2018-12-11T09:25:56.442Z,99.90
2018-12-11T09:28:31.126Z,99.90
2018-12-11T09:31:05.857Z,99.90
2018-12-11T09:33:40.735Z,99.90
2018-12-11T09:36:15.661Z,99.90
2018-12-11T09:38:50.509Z,99.90
2018-12-11T09:41:25.221Z,99.90
2018-12-11T09:44:00.054Z,99.90
2018-12-11T09:46:34.780Z,99.90
2018-12-11T09:49:09.472Z,99.90
2018-12-11T09:51:44.376Z,99.90
2018-12-11T09:54:19.143Z,99.90
2018-12-11T09:56:53.902Z,99.90
2018-12-11T09:59:28.652Z,99.90
2018-12-11T10:02:03.647Z,99.90
2018-12-11T10:04:38.291Z,99.90
2018-12-11T10:07:13.413Z,99.50
2018-12-11T10:09:48.330Z,99.30
2018-12-11T10:12:23.171Z,99.40
2018-12-11T10:14:57.980Z,99.90
2018-12-11T10:17:32.828Z,99.20
2018-12-11T10:25:28.148Z,97.30
2018-12-11T10:33:28.816Z,95.20
2018-12-11T10:36:03.719Z,96.40
2018-12-11T10:38:38.514Z,96.60
2018-12-11T10:41:13.317Z,95.20
2018-12-11T10:43:47.894Z,93.30
2018-12-11T10:46:22.772Z,92.60
2018-12-11T10:48:57.386Z,91.50
2018-12-11T10:51:32.138Z,90.60
2018-12-11T10:54:06.810Z,89.10
2018-12-11T10:56:41.604Z,88.50
2018-12-11T10:59:16.447Z,86.70
2018-12-11T11:01:53.703Z,84.00
2018-12-11T11:04:28.609Z,80.20
2018-12-11T11:07:03.429Z,81.40
2018-12-11T11:09:38.328Z,84.20
2018-12-11T11:12:13.607Z,80.20
2018-12-11T11:14:48.541Z,88.50
2018-12-11T11:17:23.278Z,88.30
2018-12-11T11:19:58.157Z,88.90
2018-12-11T11:22:33.087Z,82.80
2018-12-11T11:25:08.165Z,90.00
2018-12-11T11:27:42.966Z,88.60
2018-12-11T11:30:17.706Z,92.00
2018-12-11T11:32:52.414Z,91.90
2018-12-11T11:35:27.358Z,89.60
2018-12-11T11:38:02.320Z,89.40
2018-12-11T11:40:37.082Z,90.40
2018-12-11T11:43:11.904Z,92.00
2018-12-11T11:45:46.717Z,92.70
2018-12-11T11:48:21.651Z,90.30
2018-12-11T11:50:56.547Z,89.60
2018-12-11T11:53:31.494Z,79.20
2018-12-11T11:56:06.371Z,75.30
2018-12-11T11:58:41.183Z,65.00
2018-12-11T12:01:15.896Z,62.70
2018-12-11T12:03:50.698Z,64.50
2018-12-11T12:06:25.643Z,84.40
2018-12-11T12:09:00.488Z,88.00
2018-12-11T12:11:35.402Z,88.50
2018-12-11T12:14:10.196Z,89.60
2018-12-11T12:16:44.944Z,91.70
2018-12-11T12:19:19.804Z,88.40
2018-12-11T12:21:54.454Z,90.50
2018-12-11T12:24:29.388Z,82.90
2018-12-11T12:27:04.104Z,82.10
2018-12-11T12:29:38.889Z,87.20
2018-12-11T12:32:14.008Z,85.40
2018-12-11T12:34:48.909Z,88.70
2018-12-11T12:37:23.661Z,84.70
2018-12-11T12:39:58.569Z,82.70
2018-12-11T12:42:33.419Z,84.40
2018-12-11T12:45:08.549Z,87.20
2018-12-11T12:47:43.296Z,90.00
2018-12-11T12:50:18.567Z,87.40
2018-12-11T12:52:53.479Z,87.50
2018-12-11T12:55:28.383Z,90.00
2018-12-11T12:58:03.265Z,90.10
2018-12-11T13:00:37.999Z,87.70
2018-12-11T13:03:12.886Z,90.70
2018-12-11T13:05:47.615Z,88.90
2018-12-11T13:08:22.358Z,90.70
2018-12-11T13:10:57.236Z,91.80
2018-12-11T13:13:32.223Z,92.00
2018-12-11T13:16:07.197Z,90.80
2018-12-11T13:18:41.914Z,90.90
2018-12-11T13:21:16.543Z,91.30
2018-12-11T13:23:51.389Z,91.90
2018-12-11T13:26:26.311Z,90.70
2018-12-11T13:29:01.240Z,89.10
2018-12-11T13:31:36.073Z,90.60
2018-12-11T13:34:11.247Z,89.60
2018-12-11T13:36:46.352Z,88.70
2018-12-11T13:39:21.206Z,90.20
2018-12-11T13:41:55.957Z,90.80
2018-12-11T13:44:30.758Z,90.60
2018-12-11T13:47:05.982Z,90.70
2018-12-11T13:49:40.586Z,90.90
2018-12-11T13:52:15.363Z,91.80
2018-12-11T13:54:50.186Z,90.90
2018-12-11T13:57:25.228Z,91.30
2018-12-11T13:59:59.949Z,91.90
2018-12-11T14:02:34.749Z,92.20
2018-12-11T14:05:09.496Z,92.00
2018-12-11T14:07:44.305Z,92.70
2018-12-11T14:10:19.018Z,93.80
2018-12-11T14:12:53.954Z,92.10
2018-12-11T14:15:28.697Z,91.60
2018-12-11T14:18:03.578Z,92.20
2018-12-11T14:20:38.547Z,91.60
2018-12-11T14:23:13.625Z,91.90
2018-12-11T14:25:48.496Z,92.20
2018-12-11T14:28:23.541Z,91.70
2018-12-11T14:30:59.139Z,91.80
2018-12-11T14:33:34.274Z,91.80
2018-12-11T14:36:09.577Z,91.80
2018-12-11T14:38:44.456Z,91.50
2018-12-11T14:41:19.362Z,89.40
2018-12-11T14:44:00.803Z,90.00
2018-12-11T14:46:35.740Z,89.30
2018-12-11T14:49:10.514Z,86.10
2018-12-11T14:51:45.094Z,85.70
2018-12-11T14:54:19.978Z,85.90
2018-12-11T14:56:54.761Z,86.10
2018-12-11T14:59:29.499Z,87.60
2018-12-11T15:02:04.360Z,88.70
2018-12-11T15:04:39.270Z,89.20
2018-12-11T15:07:14.153Z,89.50
2018-12-11T15:09:52.115Z,89.00
2018-12-11T15:12:27.132Z,89.30
2018-12-11T15:15:01.833Z,90.30
2018-12-11T15:17:36.647Z,90.40
2018-12-11T15:20:11.435Z,91.00
2018-12-11T15:22:46.208Z,90.70
2018-12-11T15:25:21.072Z,90.20
2018-12-11T15:27:55.915Z,90.90
2018-12-11T15:30:36.040Z,91.20
2018-12-11T15:33:11.287Z,91.50
2018-12-11T15:35:46.274Z,91.10
2018-12-11T15:38:21.143Z,91.00
2018-12-11T15:40:55.887Z,90.80
2018-12-11T15:43:31.109Z,90.80
2018-12-11T15:46:06.186Z,91.20
2018-12-11T15:48:41.552Z,90.10
2018-12-11T15:51:16.777Z,89.20
2018-12-11T15:53:51.620Z,87.60
2018-12-11T15:56:26.586Z,87.50
2018-12-11T15:59:01.264Z,88.10
2018-12-11T16:01:36.131Z,88.00
2018-12-11T16:04:10.886Z,88.50
2018-12-11T16:06:45.894Z,88.00
2018-12-11T16:09:24.903Z,88.30
2018-12-11T16:11:59.770Z,89.20
2018-12-11T16:14:35.162Z,90.20
2018-12-11T16:17:10.249Z,89.80
2018-12-11T16:19:45.161Z,87.60
2018-12-11T16:22:20.063Z,87.10
2018-12-11T16:24:55.159Z,88.20
2018-12-11T16:27:30.446Z,88.90
2018-12-11T16:30:06.082Z,86.50
2018-12-11T16:32:40.924Z,84.10
2018-12-11T16:35:15.791Z,86.30
2018-12-11T16:37:50.812Z,86.30
2018-12-11T16:40:25.563Z,87.60
2018-12-11T16:43:00.516Z,88.00
2018-12-11T16:45:42.037Z,86.40
2018-12-11T16:48:16.903Z,88.60
2018-12-11T16:50:51.701Z,88.50
2018-12-11T16:53:26.844Z,89.10
2018-12-11T16:58:27.417Z,88.60
2018-12-11T17:01:06.478Z,86.70
2018-12-11T17:03:41.429Z,87.20
2018-12-11T17:06:16.449Z,87.40
2018-12-11T17:08:51.262Z,86.80
2018-12-11T17:11:26.762Z,88.40
2018-12-11T17:14:01.672Z,89.90
2018-12-11T17:16:36.712Z,90.60
2018-12-11T17:19:11.404Z,90.90
2018-12-11T17:21:47.068Z,91.50
2018-12-11T17:24:22.353Z,91.20
2018-12-11T17:26:58.456Z,91.80
2018-12-11T17:29:33.134Z,91.70
2018-12-11T17:32:08.052Z,91.70
2018-12-11T17:34:42.945Z,91.50
2018-12-11T17:37:17.895Z,92.40
2018-12-11T17:39:52.525Z,92.50
2018-12-11T17:42:27.549Z,92.60
2018-12-11T17:45:02.373Z,92.50
2018-12-11T17:47:37.112Z,91.20
2018-12-11T17:50:11.965Z,90.80
2018-12-11T17:52:46.805Z,90.80
2018-12-11T17:55:21.799Z,90.00
2018-12-11T17:57:56.629Z,89.60
2018-12-11T18:00:31.514Z,88.80
2018-12-11T18:03:06.524Z,92.10
2018-12-11T18:05:41.322Z,93.10
2018-12-11T18:08:16.199Z,91.70
2018-12-11T18:10:51.134Z,90.30
2018-12-11T18:13:25.926Z,90.90
2018-12-11T18:16:00.859Z,91.30
2018-12-11T18:18:35.645Z,91.90
2018-12-11T18:21:10.380Z,92.20
2018-12-11T18:23:45.279Z,91.10
2018-12-11T18:26:20.225Z,91.40
2018-12-11T18:28:54.944Z,92.00
2018-12-11T18:31:29.774Z,92.30
2018-12-11T18:34:10.950Z,91.90
2018-12-11T18:36:41.731Z,92.50
2018-12-11T18:39:16.862Z,91.90
2018-12-11T18:41:51.796Z,92.80
2018-12-11T18:44:27.042Z,92.60
2018-12-11T18:47:01.844Z,91.00
2018-12-11T18:49:36.891Z,91.70
2018-12-11T18:52:11.748Z,92.50
2018-12-11T18:54:46.504Z,93.10
2018-12-11T18:57:21.555Z,93.60
2018-12-11T18:59:56.273Z,93.90
2018-12-11T19:02:31.115Z,94.10
2018-12-11T19:05:05.976Z,94.80
2018-12-11T19:07:40.828Z,94.60
2018-12-11T19:10:15.554Z,94.70
2018-12-11T19:12:50.528Z,94.60
2018-12-11T19:15:25.338Z,94.20
2018-12-11T19:17:59.955Z,93.80
2018-12-11T19:20:34.796Z,94.90
2018-12-11T19:23:22.081Z,94.50
2018-12-11T19:25:56.854Z,95.10
2018-12-11T19:28:31.860Z,96.80
2018-12-11T19:31:17.147Z,96.60
2018-12-11T19:33:52.102Z,97.30
2018-12-11T19:36:26.762Z,97.70
2018-12-11T19:39:01.751Z,97.70
2018-12-11T19:41:36.540Z,98.60
2018-12-11T19:44:11.387Z,98.70
2018-12-11T19:46:46.239Z,98.70
2018-12-11T19:49:21.061Z,99.30
2018-12-11T19:52:02.681Z,99.50
2018-12-11T19:54:37.614Z,99.60
2018-12-11T19:57:12.477Z,99.90
2018-12-11T19:59:47.619Z,99.90
2018-12-11T20:02:22.420Z,99.90
2018-12-11T20:04:57.314Z,99.90
2018-12-11T20:07:32.163Z,99.90
2018-12-11T20:10:12.661Z,99.90
2018-12-11T20:12:47.625Z,99.90
2018-12-11T20:15:22.387Z,99.90
2018-12-11T20:17:57.206Z,99.90
2018-12-11T20:20:32.301Z,99.40
2018-12-11T20:23:07.127Z,99.30
2018-12-11T20:25:42.877Z,99.90
2018-12-11T20:28:18.262Z,99.90
2018-12-11T20:30:53.439Z,99.90
2018-12-11T20:33:28.482Z,99.90
2018-12-11T20:36:03.439Z,99.90
2018-12-11T20:38:38.341Z,99.90
2018-12-11T20:41:13.320Z,99.90
2018-12-11T20:43:48.159Z,99.90
2018-12-11T20:46:23.398Z,99.90
2018-12-11T20:48:58.205Z,99.90
2018-12-11T20:51:36.206Z,99.90
2018-12-11T20:54:11.381Z,99.90
2018-12-11T20:56:46.183Z,99.90
2018-12-11T20:59:21.163Z,99.90
2018-12-11T21:01:56.474Z,99.90
2018-12-11T21:04:31.471Z,99.90
2018-12-11T21:07:06.629Z,99.90
2018-12-11T21:09:41.860Z,99.90
2018-12-11T21:12:16.681Z,99.90
2018-12-11T21:14:51.797Z,99.90
2018-12-11T21:17:26.607Z,99.90
2018-12-11T21:20:01.440Z,99.90
2018-12-11T21:22:36.832Z,99.90
2018-12-11T21:25:12.080Z,99.90
2018-12-11T21:27:47.044Z,99.90
2018-12-11T21:30:21.937Z,99.90
2018-12-11T21:32:56.905Z,99.90
2018-12-11T21:35:32.016Z,99.90
2018-12-11T21:38:06.888Z,99.90
2018-12-11T21:40:41.760Z,99.90
2018-12-11T21:43:17.404Z,99.90
2018-12-11T21:45:52.261Z,99.90
2018-12-11T21:48:27.184Z,99.90
2018-12-11T21:51:02.100Z,99.90
2018-12-11T21:53:36.978Z,99.90
2018-12-11T21:56:11.862Z,99.90
2018-12-11T21:58:47.868Z,99.90
2018-12-11T22:01:22.657Z,99.90
2018-12-11T22:03:57.449Z,99.90
2018-12-11T22:06:32.326Z,99.90
2018-12-11T22:09:07.841Z,99.90
2018-12-11T22:11:42.881Z,99.90
2018-12-11T22:14:17.683Z,99.90
2018-12-11T22:16:52.522Z,99.90
2018-12-11T22:19:27.508Z,99.90
2018-12-11T22:22:02.285Z,99.90
2018-12-11T22:24:37.051Z,99.90
2018-12-11T22:27:11.805Z,99.90
2018-12-11T22:29:46.679Z,99.90
2018-12-11T22:32:21.362Z,99.90
2018-12-11T22:34:56.402Z,99.90
2018-12-11T22:37:31.320Z,99.90
2018-12-11T22:40:06.319Z,99.90
2018-12-11T22:42:41.169Z,99.90
2018-12-11T22:45:15.973Z,99.90
2018-12-11T22:47:50.867Z,99.90
2018-12-11T22:50:25.748Z,99.90
2018-12-11T22:53:00.688Z,99.90
2018-12-11T22:55:35.826Z,99.90
2018-12-11T22:58:10.654Z,99.90
2018-12-11T23:00:46.976Z,99.90
2018-12-11T23:03:21.830Z,99.90
2018-12-11T23:05:57.389Z,99.90
2018-12-11T23:08:32.219Z,99.90
2018-12-11T23:11:07.099Z,99.90
2018-12-11T23:13:41.855Z,99.90
2018-12-11T23:16:16.760Z,99.90
2018-12-11T23:18:51.550Z,99.90
2018-12-11T23:21:26.160Z,99.90
2018-12-11T23:24:01.016Z,99.90
2018-12-11T23:26:35.773Z,99.90
2018-12-11T23:29:11.462Z,99.90
2018-12-11T23:31:46.132Z,99.90
2018-12-11T23:34:21.029Z,99.90
2018-12-11T23:36:55.862Z,99.90
2018-12-11T23:39:30.899Z,99.90
2018-12-11T23:42:05.737Z,99.90
2018-12-11T23:44:40.564Z,99.90
2018-12-11T23:47:15.502Z,99.90
2018-12-11T23:49:50.332Z,99.90
2018-12-11T23:52:25.262Z,99.90
2018-12-11T23:55:00.090Z,99.90
2018-12-11T23:57:35.115Z,99.90
